EFMA/MHQ METAR and TAF weather

Enter ICAO airport designator
Station Type Date Time Source
EFMA METAR 2018/06/25 02:20 UTC NOAA

EFMA 250220Z AUTO 35008KT 320V020 CAVOK 13/05 Q1011


Station Type Date Time Source
EFMA Decoded METAR 2018/06/25 02:20 UTC NOAA

Mariehamn / Aland Island, Finland (EFMA) 60-07N 019-54E
Jun 24, 2018 - 10:20 PM EDT / 2018.06.25 0220 UTC
Wind: from the N (350 degrees) at 9 MPH (8 KT) (direction variable):0
Visibility: greater than 7 mile(s):0
Temperature: 55 F (13 C)
Dew Point: 41 F (5 C)
Relative Humidity: 58%
Pressure (altimeter): 29.85 in. Hg (1011 hPa)
ob: EFMA 250220Z AUTO 35008KT 320V020 CAVOK 13/05 Q1011
cycle: 2

Station Type Date Time Source
EFMA TAF 2014/05/01 21:18 UTC NOAA

TAF TAF EFMA 302037Z 3021/0106 08008KT CAVOK
TEMPO 3023/0101 02010KT 6000 RASN
BECMG 0101/0103 01012KT 4000 RASN BKN010 OVC025


Example: see airport list